Time;durP1;ratioP1;P1;durP2;ratioP2;P2;SDS_P1;SDS_P2;PMS_P1;PMS_P2;Temp;Humidity;BMP_temperature;BMP_pressure;BME280_temperature;BME280_humidity;BME280_pressure;Samples;Min_cycle;Max_cycle;Signal;HPM_P1;HPM_P2
2022/04/24 00:00:31;;;;;;;12.82;5.85;;;10.00;95.20;;;;;;5064956;28;20052;-62
2022/04/24 00:02:56;;;;;;;8.15;5.45;;;9.90;95.50;;;;;;5057182;28;20055;-64
2022/04/24 00:05:22;;;;;;;8.30;5.32;;;9.90;95.50;;;;;;5057768;28;20052;-64
2022/04/24 00:07:47;;;;;;;6.45;5.22;;;9.90;95.60;;;;;;5056409;28;20036;-64
2022/04/24 00:10:13;;;;;;;6.93;5.35;;;9.90;95.70;;;;;;5059523;28;20047;-65
2022/04/24 00:12:38;;;;;;;7.07;5.95;;;9.90;95.70;;;;;;5063354;28;20113;-64
2022/04/24 00:15:05;;;;;;;11.63;6.28;;;9.80;96.00;;;;;;5064641;28;20128;-65
2022/04/24 00:17:31;;;;;;;7.50;5.57;;;9.70;96.20;;;;;;5055656;28;20056;-64
2022/04/24 00:19:56;;;;;;;8.48;5.60;;;9.70;96.30;;;;;;5061087;28;20373;-64
2022/04/24 00:22:22;;;;;;;8.07;6.25;;;9.60;96.50;;;;;;5062656;28;20050;-64
2022/04/24 00:24:47;;;;;;;5.95;5.13;;;9.60;97.00;;;;;;5059620;28;20174;-64
2022/04/24 00:27:13;;;;;;;8.10;6.53;;;9.60;96.90;;;;;;5065341;28;20051;-64
2022/04/24 00:29:39;;;;;;;12.25;6.18;;;9.50;97.00;;;;;;5058800;28;20882;-64
2022/04/24 00:32:05;;;;;;;8.15;5.75;;;9.50;96.80;;;;;;5055648;28;20137;-64
2022/04/24 00:34:31;;;;;;;5.75;5.05;;;9.50;97.00;;;;;;5053988;28;20210;-64
2022/04/24 00:36:56;;;;;;;9.98;6.07;;;9.50;97.10;;;;;;5056121;28;20629;-64
2022/04/24 00:39:22;;;;;;;6.88;5.68;;;9.50;96.90;;;;;;5072673;28;20389;-63
2022/04/24 00:41:49;;;;;;;6.30;4.65;;;9.50;96.80;;;;;;5056127;28;20049;-64
2022/04/24 00:44:16;;;;;;;12.18;5.88;;;9.50;97.20;;;;;;5056147;28;20052;-64
2022/04/24 00:47:01;;;;;;;7.93;4.72;;;9.50;97.10;;;;;;5055702;28;20139;-63
2022/04/24 00:49:28;;;;;;;10.45;5.10;;;9.50;97.20;;;;;;5060044;28;20124;-64
2022/04/24 00:51:54;;;;;;;8.23;6.63;;;9.40;97.30;;;;;;5074145;28;20055;-64
2022/04/24 00:54:20;;;;;;;6.55;5.55;;;9.40;97.50;;;;;;5065854;28;20143;-64
2022/04/24 00:56:46;;;;;;;9.02;5.55;;;9.30;97.70;;;;;;5056677;28;20042;-64
2022/04/24 00:59:13;;;;;;;6.55;5.18;;;9.30;97.50;;;;;;5056091;28;20048;-63
2022/04/24 01:01:40;;;;;;;8.25;5.65;;;9.30;97.50;;;;;;5058963;28;20040;-64
2022/04/24 01:04:08;;;;;;;7.45;6.30;;;9.30;97.70;;;;;;5076250;28;20056;-63
2022/04/24 01:06:39;;;;;;;8.55;6.50;;;9.20;97.80;;;;;;5076083;28;20575;-64
2022/04/24 01:09:19;;;;;;;8.10;7.15;;;9.20;98.10;;;;;;5075978;28;20053;-64
2022/04/24 01:11:50;;;;;;;6.90;6.25;;;9.10;98.50;;;;;;5059103;28;20107;-64
2022/04/24 01:14:17;;;;;;;8.35;6.38;;;9.10;98.50;;;;;;5054877;28;20828;-64
2022/04/24 01:16:44;;;;;;;8.18;6.45;;;9.00;98.70;;;;;;5067430;28;20510;-64
2022/04/24 01:19:10;;;;;;;6.90;5.90;;;9.00;99.20;;;;;;5074689;28;20080;-64
2022/04/24 01:21:36;;;;;;;10.30;7.10;;;8.90;99.40;;;;;;5075557;28;20119;-63
2022/04/24 01:24:06;;;;;;;8.52;6.78;;;8.90;99.40;;;;;;5075398;28;20082;-64
2022/04/24 01:26:32;;;;;;;7.13;5.75;;;8.90;99.80;;;;;;5068776;28;20097;-64
2022/04/24 01:28:57;;;;;;;9.23;7.45;;;8.80;99.90;;;;;;5074959;28;20040;-64
2022/04/24 01:31:23;;;;;;;7.13;6.18;;;8.80;99.90;;;;;;5072622;28;20396;-64
2022/04/24 01:33:49;;;;;;;8.18;6.70;;;8.80;99.80;;;;;;5055426;28;20051;-64
2022/04/24 01:36:14;;;;;;;9.80;6.72;;;8.80;99.90;;;;;;5061250;28;20111;-64
2022/04/24 01:38:41;;;;;;;7.78;6.43;;;8.70;99.90;;;;;;5071727;28;20052;-64
2022/04/24 01:41:07;;;;;;;8.23;6.78;;;8.70;99.90;;;;;;5055220;28;20045;-64
2022/04/24 01:43:33;;;;;;;9.02;6.60;;;8.70;99.90;;;;;;5055093;28;20041;-64
2022/04/24 01:45:58;;;;;;;8.32;6.63;;;8.60;99.90;;;;;;5067575;28;20091;-64
2022/04/24 01:48:24;;;;;;;7.13;6.03;;;8.60;99.90;;;;;;5070561;28;20123;-64
2022/04/24 01:50:54;;;;;;;8.57;6.53;;;8.60;99.90;;;;;;5057620;28;20529;-64
2022/04/24 01:53:19;;;;;;;9.00;6.88;;;8.50;99.90;;;;;;5075086;28;20040;-64
2022/04/24 01:55:45;;;;;;;10.63;6.70;;;8.50;99.90;;;;;;5065469;28;20110;-64
2022/04/24 01:58:11;;;;;;;11.50;7.70;;;8.50;99.90;;;;;;5052814;28;20170;-64
2022/04/24 02:00:36;;;;;;;9.65;6.57;;;8.40;99.90;;;;;;5054153;28;20056;-64
2022/04/24 02:03:02;;;;;;;9.75;6.72;;;8.30;99.90;;;;;;5064410;28;20086;-64
2022/04/24 02:05:27;;;;;;;7.05;6.25;;;8.30;99.90;;;;;;5072253;28;20047;-64
2022/04/24 02:07:53;;;;;;;11.32;8.32;;;8.30;99.90;;;;;;5073158;28;20055;-64
2022/04/24 02:10:20;;;;;;;9.80;6.38;;;8.30;99.90;;;;;;5071384;28;20071;-64
2022/04/24 02:12:46;;;;;;;7.18;5.50;;;8.30;99.90;;;;;;5073414;28;20051;-64
2022/04/24 02:15:12;;;;;;;11.13;6.43;;;8.30;99.90;;;;;;5074704;28;20736;-64
2022/04/24 02:17:37;;;;;;;6.63;5.90;;;8.30;99.90;;;;;;5072456;28;20083;-64
2022/04/24 02:20:04;;;;;;;10.50;6.78;;;8.30;99.90;;;;;;5073790;28;20044;-64
2022/04/24 02:22:33;;;;;;;9.95;6.93;;;8.30;99.90;;;;;;5074399;28;20518;-64
2022/04/24 02:25:01;;;;;;;8.85;6.25;;;8.30;99.90;;;;;;5073896;28;20036;-64
2022/04/24 02:27:27;;;;;;;8.25;6.35;;;8.20;99.90;;;;;;5073902;28;20068;-64
2022/04/24 02:29:53;;;;;;;9.38;7.57;;;8.20;99.90;;;;;;5072499;28;20048;-64
2022/04/24 02:32:19;;;;;;;10.43;6.65;;;8.10;99.90;;;;;;5065588;28;20048;-64
2022/04/24 02:34:45;;;;;;;10.35;6.82;;;8.10;99.90;;;;;;5056523;28;20048;-64
2022/04/24 02:37:10;;;;;;;9.85;6.32;;;8.10;99.90;;;;;;5074786;28;20097;-64
2022/04/24 02:39:36;;;;;;;11.65;7.90;;;8.10;99.90;;;;;;5071616;28;20070;-64
2022/04/24 02:42:03;;;;;;;9.23;7.72;;;8.10;99.90;;;;;;5070761;28;20521;-64
2022/04/24 02:44:28;;;;;;;11.88;7.93;;;8.00;99.90;;;;;;5070525;28;20097;-64
2022/04/24 02:46:54;;;;;;;12.02;6.90;;;8.00;99.90;;;;;;5073784;28;20052;-64
2022/04/24 02:49:19;;;;;;;9.43;6.63;;;8.00;99.90;;;;;;5074240;28;20252;-64
2022/04/24 02:51:45;;;;;;;10.45;6.78;;;8.00;99.90;;;;;;5073237;28;20067;-64
2022/04/24 02:54:11;;;;;;;12.45;6.88;;;8.00;99.90;;;;;;5073978;28;20040;-65
2022/04/24 02:56:36;;;;;;;9.25;5.80;;;8.00;99.90;;;;;;5073807;28;20044;-64
2022/04/24 02:59:02;;;;;;;9.80;6.70;;;8.00;99.90;;;;;;5074353;28;20059;-64
2022/04/24 03:01:30;;;;;;;9.50;6.63;;;8.00;99.90;;;;;;5068145;28;20062;-64
2022/04/24 03:03:56;;;;;;;10.27;7.10;;;8.50;99.90;;;;;;5073626;28;20094;-64
2022/04/24 03:06:22;;;;;;;8.15;6.95;;;8.00;99.90;;;;;;5070338;28;20622;-63
2022/04/24 03:08:48;;;;;;;11.50;7.18;;;8.00;99.90;;;;;;5054079;28;20041;-64
2022/04/24 03:11:14;;;;;;;10.45;6.63;;;7.90;99.90;;;;;;5059519;28;20116;-64
2022/04/24 03:13:41;;;;;;;7.97;6.05;;;7.90;99.90;;;;;;5074335;28;20044;-64
2022/04/24 03:16:06;;;;;;;10.43;7.45;;;7.90;99.90;;;;;;5068622;28;20043;-64
2022/04/24 03:18:32;;;;;;;9.98;6.85;;;7.90;99.90;;;;;;5072678;28;20048;-64
2022/04/24 03:20:57;;;;;;;8.55;6.63;;;7.80;99.90;;;;;;5074512;28;20055;-64
2022/04/24 03:23:23;;;;;;;9.90;6.75;;;7.80;99.90;;;;;;5074266;28;20044;-64
2022/04/24 03:25:50;;;;;;;7.45;6.60;;;7.80;99.90;;;;;;5074507;28;20256;-64
2022/04/24 03:28:19;;;;;;;10.52;6.78;;;7.80;99.90;;;;;;5073921;28;20082;-64
2022/04/24 03:30:45;;;;;;;10.80;7.40;;;7.80;99.90;;;;;;5074077;28;20468;-64
2022/04/24 03:33:11;;;;;;;11.77;7.57;;;7.80;99.90;;;;;;5069933;28;20106;-63
2022/04/24 03:35:36;;;;;;;11.48;8.13;;;7.80;99.90;;;;;;5071939;28;20085;-64
2022/04/24 03:38:03;;;;;;;7.15;5.88;;;7.80;99.90;;;;;;5053484;28;20118;-64
2022/04/24 03:40:28;;;;;;;8.73;6.72;;;7.80;99.90;;;;;;5055336;28;20049;-64
2022/04/24 03:42:54;;;;;;;10.50;6.57;;;7.70;99.90;;;;;;5058546;28;20970;-64
2022/04/24 03:45:20;;;;;;;11.90;8.15;;;7.80;99.90;;;;;;5058039;28;20041;-64
2022/04/24 03:47:47;;;;;;;8.48;6.63;;;7.80;99.90;;;;;;5067986;28;20066;-64
2022/04/24 03:50:13;;;;;;;10.93;7.43;;;7.70;99.90;;;;;;5077813;28;20140;-64
2022/04/24 03:52:39;;;;;;;10.70;7.93;;;7.80;99.90;;;;;;5077487;28;20543;-64
2022/04/24 03:55:05;;;;;;;8.32;5.85;;;7.70;99.90;;;;;;5077633;28;20682;-64
2022/04/24 03:57:31;;;;;;;10.23;7.22;;;7.70;99.90;;;;;;5077444;28;20487;-64
2022/04/24 03:59:57;;;;;;;8.60;7.07;;;7.70;99.90;;;;;;5076307;28;20048;-65
2022/04/24 04:02:23;;;;;;;12.27;6.97;;;7.60;99.90;;;;;;5057507;28;20079;-64
2022/04/24 04:04:49;;;;;;;14.32;7.85;;;7.60;99.90;;;;;;5057420;28;20049;-64
2022/04/24 04:07:14;;;;;;;9.15;7.35;;;7.60;99.90;;;;;;5056196;28;20846;-65
2022/04/24 04:09:40;;;;;;;9.57;6.35;;;7.60;99.90;;;;;;5062536;28;20051;-64
2022/04/24 04:12:07;;;;;;;7.35;5.82;;;7.60;99.90;;;;;;5071927;28;20130;-65
2022/04/24 04:14:33;;;;;;;8.32;5.82;;;7.60;99.90;;;;;;5064084;28;20048;-64
2022/04/24 04:16:58;;;;;;;8.35;7.07;;;7.60;99.90;;;;;;5070677;28;20060;-65
2022/04/24 04:19:24;;;;;;;10.13;6.80;;;7.60;99.90;;;;;;5075568;28;20059;-65
2022/04/24 04:21:50;;;;;;;8.73;6.75;;;7.50;99.90;;;;;;5075276;28;20195;-64
2022/04/24 04:24:16;;;;;;;9.15;7.10;;;7.50;99.90;;;;;;5077127;28;20147;-64
2022/04/24 04:26:41;;;;;;;11.40;6.95;;;7.50;99.90;;;;;;5076703;28;20043;-65
2022/04/24 04:29:07;;;;;;;10.32;6.68;;;7.50;99.90;;;;;;5076970;28;20419;-65
2022/04/24 04:31:33;;;;;;;10.15;6.45;;;7.50;99.90;;;;;;5076292;28;20046;-64
2022/04/24 04:33:58;;;;;;;8.77;6.07;;;7.50;99.90;;;;;;5075802;28;20574;-64
2022/04/24 04:36:24;;;;;;;10.32;7.28;;;7.50;99.90;;;;;;5058939;28;20739;-64
2022/04/24 04:38:50;;;;;;;10.90;6.07;;;7.60;99.90;;;;;;5053879;28;20079;-64
2022/04/24 04:41:15;;;;;;;10.52;5.95;;;7.50;99.90;;;;;;5058582;28;20100;-65
2022/04/24 04:43:41;;;;;;;6.93;5.38;;;7.50;99.90;;;;;;5056691;28;20044;-65
2022/04/24 04:46:06;;;;;;;9.25;6.25;;;7.50;99.90;;;;;;5068600;28;20051;-65
2022/04/24 04:48:32;;;;;;;8.48;5.65;;;7.50;99.90;;;;;;5076648;28;20044;-64
2022/04/24 04:50:57;;;;;;;8.68;7.32;;;7.60;99.90;;;;;;5075453;28;20581;-65
2022/04/24 04:53:23;;;;;;;10.38;5.95;;;7.60;99.90;;;;;;5063026;28;20052;-65
2022/04/24 04:55:49;;;;;;;11.82;6.30;;;7.60;99.90;;;;;;5056267;28;20059;-65
2022/04/24 04:58:15;;;;;;;8.90;5.88;;;7.60;99.90;;;;;;5054135;28;20044;-65
2022/04/24 05:00:41;;;;;;;7.63;6.30;;;7.70;99.90;;;;;;5063003;28;20104;-64
2022/04/24 05:03:07;;;;;;;9.60;6.95;;;7.80;99.90;;;;;;5077234;28;20062;-65
2022/04/24 05:05:33;;;;;;;7.38;6.22;;;7.80;99.90;;;;;;5075961;28;20052;-63
2022/04/24 05:07:58;;;;;;;9.75;7.05;;;7.80;99.90;;;;;;5063668;28;20055;-63
2022/04/24 05:10:24;;;;;;;11.40;7.82;;;7.90;99.90;;;;;;5067257;28;20048;-64
2022/04/24 05:12:50;;;;;;;9.13;7.32;;;8.00;99.90;;;;;;5062771;28;20060;-64
2022/04/24 05:15:16;;;;;;;11.80;7.28;;;8.00;99.90;;;;;;5055432;28;20040;-64
2022/04/24 05:17:43;;;;;;;12.25;7.88;;;8.00;99.90;;;;;;5064179;28;20032;-63
2022/04/24 05:20:13;;;;;;;9.05;6.95;;;8.10;99.90;;;;;;5062458;28;20041;-63
2022/04/24 05:22:40;;;;;;;12.40;8.13;;;8.10;99.90;;;;;;5055335;28;20044;-63
2022/04/24 05:25:09;;;;;;;10.52;7.60;;;8.20;99.90;;;;;;5061737;28;20135;-63
2022/04/24 05:27:36;;;;;;;10.95;6.97;;;8.20;99.90;;;;;;5072256;28;20066;-64
2022/04/24 05:30:07;;;;;;;12.95;7.43;;;8.30;99.90;;;;;;5055136;28;20550;-66
2022/04/24 05:32:48;;;;;;;9.80;7.18;;;8.40;99.90;;;;;;5054459;28;20068;-64
2022/04/24 05:35:14;;;;;;;10.63;6.57;;;8.50;99.90;;;;;;5053854;28;20825;-64
2022/04/24 05:37:40;;;;;;;10.57;7.28;;;8.60;99.90;;;;;;5054808;28;20048;-64
2022/04/24 05:40:06;;;;;;;12.40;6.90;;;8.70;99.90;;;;;;5058328;28;20756;-64
2022/04/24 05:42:33;;;;;;;8.13;6.22;;;8.80;99.90;;;;;;5055176;28;20049;-63
2022/04/24 05:45:04;;;;;;;8.02;7.22;;;8.90;99.90;;;;;;5067796;28;20633;-63
2022/04/24 05:47:30;;;;;;;10.60;7.25;;;9.00;99.90;;;;;;5076171;28;20040;-64
2022/04/24 05:49:56;;;;;;;10.40;7.30;;;9.20;99.90;;;;;;5066923;28;20079;-64
2022/04/24 05:52:21;;;;;;;10.50;7.72;;;9.30;99.90;;;;;;5055430;28;20059;-64
2022/04/24 05:54:47;;;;;;;10.50;6.78;;;9.40;99.90;;;;;;5057097;28;20051;-64
2022/04/24 05:57:13;;;;;;;8.85;6.45;;;9.50;99.90;;;;;;5075578;28;20044;-64
2022/04/24 05:59:38;;;;;;;10.82;7.38;;;9.60;99.90;;;;;;5074851;28;20438;-65
2022/04/24 06:02:04;;;;;;;9.35;6.97;;;9.70;99.90;;;;;;5075136;28;20051;-65
2022/04/24 06:04:30;;;;;;;10.75;7.50;;;9.70;99.90;;;;;;5074456;28;20048;-66
2022/04/24 06:06:55;;;;;;;12.25;6.97;;;9.70;99.90;;;;;;5066240;28;20060;-66
2022/04/24 06:09:21;;;;;;;11.07;6.75;;;9.70;99.90;;;;;;5054618;28;20047;-66
2022/04/24 06:11:46;;;;;;;8.55;7.43;;;9.70;99.90;;;;;;5064517;28;20052;-65
2022/04/24 06:14:13;;;;;;;10.65;7.45;;;9.80;99.90;;;;;;5054606;28;20048;-66
2022/04/24 06:16:38;;;;;;;10.18;7.47;;;9.80;99.90;;;;;;5054644;28;20040;-66
2022/04/24 06:19:04;;;;;;;9.43;6.50;;;9.80;99.90;;;;;;5064743;28;20574;-63
2022/04/24 06:21:29;;;;;;;11.70;7.03;;;9.90;99.90;;;;;;5066492;28;20086;-64
2022/04/24 06:23:55;;;;;;;9.68;6.47;;;9.80;99.90;;;;;;5058933;28;20048;-64
2022/04/24 06:26:20;;;;;;;10.73;7.05;;;9.90;99.90;;;;;;5058317;28;20044;-65
2022/04/24 06:28:46;;;;;;;6.53;5.43;;;9.90;99.90;;;;;;5053911;28;20047;-65
2022/04/24 06:31:12;;;;;;;8.25;5.80;;;9.90;99.90;;;;;;5062678;28;20048;-65
2022/04/24 06:33:37;;;;;;;9.18;5.82;;;10.00;99.90;;;;;;5066149;28;20131;-64
2022/04/24 06:36:03;;;;;;;8.85;6.15;;;10.00;99.90;;;;;;5065724;28;20731;-65
2022/04/24 06:38:29;;;;;;;7.82;5.72;;;10.00;99.90;;;;;;5053664;28;20076;-64
2022/04/24 06:40:54;;;;;;;12.27;5.70;;;9.90;99.90;;;;;;5054180;28;20048;-64
2022/04/24 06:43:20;;;;;;;8.35;5.18;;;10.00;99.90;;;;;;5059724;28;20047;-64
2022/04/24 06:45:45;;;;;;;6.57;4.53;;;10.10;99.90;;;;;;5055109;28;20044;-65
2022/04/24 06:48:13;;;;;;;6.25;4.80;;;10.20;99.90;;;;;;5064885;28;20040;-64
2022/04/24 06:50:41;;;;;;;6.95;4.63;;;10.50;99.90;;;;;;5071477;28;20055;-64
2022/04/24 06:53:11;;;;;;;7.68;4.20;;;10.40;99.90;;;;;;5070634;28;20040;-64
2022/04/24 06:55:39;;;;;;;5.63;4.07;;;10.90;99.90;;;;;;5064076;28;20048;-65
2022/04/24 06:58:06;;;;;;;6.45;3.78;;;11.30;99.90;;;;;;5052115;28;20777;-65
2022/04/24 07:00:34;;;;;;;5.63;4.22;;;12.10;99.90;;;;;;5058546;28;20143;-65
2022/04/24 07:03:00;;;;;;;5.68;4.07;;;12.20;97.40;;;;;;5063437;28;20068;-65
2022/04/24 07:05:27;;;;;;;4.60;3.17;;;12.20;95.10;;;;;;5062456;28;20463;-65
2022/04/24 07:07:53;;;;;;;5.60;3.50;;;13.00;97.20;;;;;;5059504;28;20792;-66
2022/04/24 07:10:19;;;;;;;6.13;4.50;;;13.80;95.60;;;;;;5059993;28;20044;-66
2022/04/24 07:12:45;;;;;;;3.78;3.00;;;14.30;94.10;;;;;;5061446;28;20827;-65
2022/04/24 07:15:11;;;;;;;4.40;2.95;;;14.50;92.20;;;;;;5065946;28;20024;-66
2022/04/24 07:17:36;;;;;;;4.30;3.08;;;14.80;93.20;;;;;;5058003;28;20052;-66
2022/04/24 07:20:03;;;;;;;3.17;2.85;;;14.80;91.60;;;;;;5066561;28;20048;-66
2022/04/24 07:22:28;;;;;;;4.90;2.40;;;14.60;92.20;;;;;;5057684;28;20582;-64
2022/04/24 07:24:54;;;;;;;4.97;3.20;;;14.60;92.70;;;;;;5058953;28;20139;-64
2022/04/24 07:27:20;;;;;;;5.47;3.08;;;14.60;92.80;;;;;;5057640;28;20081;-64
2022/04/24 07:29:46;;;;;;;3.63;2.58;;;14.50;91.40;;;;;;5064787;28;20123;-64
2022/04/24 07:32:11;;;;;;;5.00;3.20;;;14.40;91.60;;;;;;5056159;28;20039;-64
2022/04/24 07:34:37;;;;;;;4.25;2.75;;;13.90;91.80;;;;;;5064909;28;20032;-64
2022/04/24 07:37:02;;;;;;;3.38;2.53;;;14.20;91.80;;;;;;5066039;28;20054;-64
2022/04/24 07:39:31;;;;;;;4.85;2.30;;;14.80;91.60;;;;;;5063285;28;20697;-64
2022/04/24 07:41:56;;;;;;;3.60;2.67;;;15.50;90.80;;;;;;5058622;28;20056;-64
2022/04/24 07:44:22;;;;;;;3.70;3.00;;;15.80;89.50;;;;;;5064245;28;20119;-64
2022/04/24 07:46:47;;;;;;;3.70;2.92;;;15.10;89.60;;;;;;5059911;28;20860;-63
2022/04/24 07:49:13;;;;;;;2.80;2.60;;;14.70;90.70;;;;;;5055979;28;20047;-64
2022/04/24 07:51:38;;;;;;;4.15;2.88;;;14.10;91.20;;;;;;4717309;28;10000337;-64
2022/04/24 07:54:04;;;;;;;2.95;2.65;;;14.00;91.80;;;;;;5063609;28;20040;-64
2022/04/24 07:56:30;;;;;;;4.35;2.85;;;13.80;92.00;;;;;;5055087;28;20036;-63
2022/04/24 07:58:55;;;;;;;5.38;3.08;;;13.60;91.50;;;;;;5058827;28;20047;-64
2022/04/24 08:01:21;;;;;;;4.00;2.97;;;13.80;92.00;;;;;;5058525;28;20105;-65
2022/04/24 08:03:46;;;;;;;4.60;3.25;;;14.00;91.90;;;;;;5048948;28;20064;-65
2022/04/24 08:06:12;;;;;;;2.90;2.40;;;15.00;91.10;;;;;;5054021;28;20048;-65
2022/04/24 08:08:37;;;;;;;3.03;2.65;;;16.10;90.60;;;;;;5051336;28;20108;-65
2022/04/24 08:11:03;;;;;;;3.15;2.35;;;17.20;89.60;;;;;;5054826;28;20121;-64
2022/04/24 08:13:29;;;;;;;5.95;3.33;;;17.00;86.30;;;;;;5056979;28;20174;-65
2022/04/24 08:15:56;;;;;;;4.32;3.13;;;17.10;86.50;;;;;;5066240;28;20310;-65
2022/04/24 08:18:23;;;;;;;3.45;3.13;;;17.50;86.90;;;;;;5063335;28;20089;-63
2022/04/24 08:20:48;;;;;;;5.90;3.13;;;17.60;85.30;;;;;;5057427;28;20114;-65
2022/04/24 08:23:17;;;;;;;3.33;2.83;;;17.60;84.60;;;;;;5052396;28;20816;-65
2022/04/24 08:25:44;;;;;;;3.72;2.83;;;18.00;85.20;;;;;;5054865;28;20948;-65
2022/04/24 08:28:11;;;;;;;4.55;4.03;;;17.50;83.80;;;;;;5059117;28;20045;-65
2022/04/24 08:30:38;;;;;;;3.45;2.70;;;17.60;85.20;;;;;;5053966;28;20073;-66
2022/04/24 08:33:04;;;;;;;4.20;3.20;;;17.60;84.40;;;;;;5060250;28;20895;-65
2022/04/24 08:35:30;;;;;;;3.50;2.88;;;17.30;81.10;;;;;;5063894;28;20232;-65
2022/04/24 08:37:56;;;;;;;7.25;3.45;;;17.70;84.00;;;;;;5067029;28;20139;-65
2022/04/24 08:40:24;;;;;;;4.75;3.60;;;17.80;82.30;;;;;;5068486;28;20048;-65
2022/04/24 08:42:50;;;;;;;6.45;3.08;;;17.40;82.00;;;;;;5060099;28;20060;-65
2022/04/24 08:45:16;;;;;;;4.63;3.13;;;17.30;82.20;;;;;;5060220;28;20043;-65
2022/04/24 08:47:43;;;;;;;4.30;3.65;;;17.50;82.00;;;;;;5067930;28;20054;-65
2022/04/24 08:50:10;;;;;;;6.38;3.33;;;17.40;81.00;;;;;;5059273;28;20051;-65
2022/04/24 08:52:36;;;;;;;4.38;2.72;;;17.50;81.20;;;;;;5058677;28;20813;-65
2022/04/24 08:55:03;;;;;;;3.38;3.08;;;18.20;80.60;;;;;;5060295;28;20053;-65
2022/04/24 08:57:31;;;;;;;3.40;3.10;;;18.10;79.70;;;;;;5059391;28;20048;-65
2022/04/24 08:59:58;;;;;;;3.97;3.58;;;18.80;78.30;;;;;;5057173;28;20067;-65
2022/04/24 09:02:24;;;;;;;4.05;2.92;;;19.10;78.10;;;;;;5069659;28;20128;-65
2022/04/24 09:04:52;;;;;;;3.50;2.72;;;18.50;78.00;;;;;;5064245;28;20040;-65
2022/04/24 09:07:17;;;;;;;3.75;2.88;;;18.30;78.50;;;;;;5067926;28;20101;-65
2022/04/24 09:09:45;;;;;;;5.05;3.22;;;18.10;76.00;;;;;;5067143;28;20043;-65
2022/04/24 09:12:15;;;;;;;5.03;2.80;;;18.20;78.00;;;;;;5058113;28;20040;-65
2022/04/24 09:14:48;;;;;;;3.45;3.10;;;18.40;76.80;;;;;;5056960;28;20040;-65
2022/04/24 09:17:16;;;;;;;3.88;3.00;;;18.10;75.30;;;;;;5053311;28;20040;-65
2022/04/24 09:19:42;;;;;;;3.63;2.72;;;17.60;75.40;;;;;;5053630;28;20052;-65
2022/04/24 09:22:09;;;;;;;6.00;2.50;;;18.10;76.40;;;;;;5061763;28;20053;-65
2022/04/24 09:24:49;;;;;;;2.80;2.47;;;18.50;76.00;;;;;;5054226;28;20056;-65
2022/04/24 09:27:26;;;;;;;2.83;2.60;;;18.30;74.90;;;;;;5059728;28;20357;-65
2022/04/24 09:29:54;;;;;;;4.53;2.70;;;17.80;74.30;;;;;;5054261;28;20774;-65
2022/04/24 09:32:20;;;;;;;2.58;2.38;;;17.90;75.10;;;;;;5053694;28;20044;-65
2022/04/24 09:34:46;;;;;;;4.18;2.70;;;18.50;75.30;;;;;;5052758;28;20186;-65
2022/04/24 09:37:12;;;;;;;2.88;2.53;;;18.60;74.10;;;;;;5053924;28;20052;-65
2022/04/24 09:39:38;;;;;;;3.50;2.70;;;19.10;72.80;;;;;;5051605;28;20807;-65
2022/04/24 09:42:30;;;;;;;3.22;2.45;;;19.10;74.00;;;;;;5051950;28;20879;-65
2022/04/24 09:44:55;;;;;;;7.05;3.13;;;19.80;73.40;;;;;;5064641;28;20151;-65
2022/04/24 09:47:25;;;;;;;3.42;2.63;;;19.30;72.70;;;;;;5072853;28;20044;-65
2022/04/24 09:49:52;;;;;;;4.57;3.03;;;18.60;72.40;;;;;;5072673;28;20472;-65
2022/04/24 09:52:23;;;;;;;4.93;3.20;;;19.30;74.00;;;;;;5065532;28;20048;-65
2022/04/24 09:54:52;;;;;;;3.90;3.60;;;19.10;71.50;;;;;;5055190;28;20113;-65
2022/04/24 09:57:20;;;;;;;5.13;2.92;;;18.90;71.20;;;;;;5053658;28;20087;-65
2022/04/24 09:59:47;;;;;;;4.15;2.83;;;18.30;72.90;;;;;;5058296;28;20047;-65
2022/04/24 10:02:15;;;;;;;3.10;2.80;;;18.30;73.10;;;;;;5073617;28;20097;-65
2022/04/24 10:04:42;;;;;;;3.60;3.03;;;18.50;73.50;;;;;;5074365;28;20136;-65
2022/04/24 10:07:11;;;;;;;4.20;2.92;;;18.70;73.70;;;;;;5056609;28;20048;-65
2022/04/24 10:09:44;;;;;;;3.42;2.50;;;18.80;72.70;;;;;;5053752;28;20554;-65
2022/04/24 10:12:14;;;;;;;4.15;2.60;;;18.70;72.40;;;;;;5053253;28;20151;-65
2022/04/24 10:14:46;;;;;;;4.35;3.38;;;19.20;72.70;;;;;;5053274;28;20037;-64
2022/04/24 10:17:36;;;;;;;6.43;3.47;;;18.90;71.40;;;;;;5061500;28;20089;-65
2022/04/24 10:20:40;;;;;;;4.15;3.50;;;18.20;71.60;;;;;;5052037;28;20044;-65
2022/04/24 10:23:06;;;;;;;4.97;3.25;;;18.50;72.10;;;;;;5002083;28;20147;-65
2022/04/24 10:25:35;;;;;;;4.38;2.75;;;19.00;73.20;;;;;;5052296;28;20041;-65
2022/04/24 10:28:18;;;;;;;4.20;2.75;;;18.90;72.10;;;;;;5068802;28;20051;-64
2022/04/24 10:30:56;;;;;;;3.20;2.72;;;19.30;70.10;;;;;;5069785;28;20059;-65
2022/04/24 10:33:23;;;;;;;8.82;3.47;;;18.90;70.90;;;;;;5064022;28;20136;-65
2022/04/24 10:35:55;;;;;;;4.13;2.85;;;18.70;71.80;;;;;;5052563;28;20117;-65
2022/04/24 10:38:24;;;;;;;4.10;2.67;;;18.90;71.80;;;;;;5052003;28;20040;-64
2022/04/24 10:40:56;;;;;;;4.15;2.42;;;19.10;72.10;;;;;;5053957;28;20046;-65
2022/04/24 10:43:22;;;;;;;3.78;2.60;;;18.90;71.10;;;;;;5053896;28;20052;-65
2022/04/24 10:45:48;;;;;;;3.70;2.10;;;18.70;71.60;;;;;;5054056;28;20055;-65
2022/04/24 10:48:17;;;;;;;4.13;2.97;;;19.00;71.00;;;;;;5065566;28;20121;-65
2022/04/24 10:50:47;;;;;;;6.68;2.53;;;19.10;70.10;;;;;;5062944;28;20667;-64
2022/04/24 10:53:13;;;;;;;3.47;2.58;;;18.80;69.70;;;;;;5058494;28;20836;-65
2022/04/24 10:55:39;;;;;;;3.22;2.70;;;18.10;69.90;;;;;;5077309;28;20040;-65
2022/04/24 10:58:05;;;;;;;2.25;2.05;;;17.50;72.50;;;;;;5068443;28;20060;-64
2022/04/24 11:00:34;;;;;;;2.97;2.53;;;17.30;72.10;;;;;;5060878;28;20076;-64
2022/04/24 11:03:14;;;;;;;2.90;2.40;;;17.30;70.60;;;;;;5058466;28;20056;-64
2022/04/24 11:05:45;;;;;;;3.13;2.70;;;16.80;72.10;;;;;;5058227;28;20051;-64
2022/04/24 11:08:21;;;;;;;4.78;2.72;;;16.60;72.40;;;;;;5056570;28;20048;-64
2022/04/24 11:10:49;;;;;;;3.13;2.83;;;16.50;72.80;;;;;;5058492;28;20049;-64
2022/04/24 11:13:17;;;;;;;3.85;2.40;;;16.80;71.90;;;;;;5057918;28;20056;-64
2022/04/24 11:15:47;;;;;;;5.03;2.53;;;16.60;72.20;;;;;;5058315;28;20044;-65
2022/04/24 11:18:26;;;;;;;3.40;2.90;;;16.60;71.80;;;;;;5068682;28;20148;-64
2022/04/24 11:21:03;;;;;;;3.08;2.30;;;16.50;73.20;;;;;;5068475;28;20055;-64
2022/04/24 11:23:35;;;;;;;2.85;2.40;;;16.70;73.20;;;;;;5058486;28;20055;-64
2022/04/24 11:26:05;;;;;;;8.05;2.50;;;16.60;72.20;;;;;;5059776;28;20120;-65
2022/04/24 11:28:45;;;;;;;3.53;2.53;;;16.50;73.10;;;;;;5077250;28;20121;-64
2022/04/24 11:31:13;;;;;;;2.40;2.20;;;16.40;72.70;;;;;;5075501;28;20059;-64
2022/04/24 11:33:51;;;;;;;5.47;2.50;;;16.20;71.50;;;;;;5077049;28;20511;-64
2022/04/24 11:36:16;;;;;;;4.65;2.75;;;16.10;72.80;;;;;;5075902;28;20071;-64
2022/04/24 11:38:46;;;;;;;2.88;2.58;;;16.30;71.70;;;;;;5075883;28;20134;-67
2022/04/24 11:41:14;;;;;;;3.45;2.45;;;16.50;70.80;;;;;;5076814;28;20055;-66
2022/04/24 11:43:41;;;;;;;3.35;2.25;;;16.30;70.30;;;;;;5075628;28;20051;-66
2022/04/24 11:50:13;;;;;;;4.43;2.50;;;16.10;71.80;;;;;;5076361;28;20455;-66
2022/04/24 11:51:49;;;;;;;4.28;2.58;;;15.80;73.30;;;;;;5072753;28;20109;-66
2022/04/24 11:54:16;;;;;;;5.10;2.60;;;15.90;74.60;;;;;;5056552;28;20052;-66
2022/04/24 11:56:41;;;;;;;5.72;2.67;;;15.80;74.00;;;;;;5055804;28;20044;-66
2022/04/24 11:59:14;;;;;;;5.32;2.80;;;15.70;74.20;;;;;;5066068;28;20052;-65
2022/04/24 12:01:40;;;;;;;3.60;2.77;;;15.70;75.70;;;;;;5056624;28;20052;-66
2022/04/24 12:04:06;;;;;;;2.95;2.17;;;15.80;74.70;;;;;;5055742;28;20048;-65
2022/04/24 12:06:32;;;;;;;6.88;3.63;;;16.00;74.70;;;;;;5054786;28;20052;-65
2022/04/24 12:09:06;;;;;;;5.68;3.10;;;15.90;75.00;;;;;;5063067;28;20152;-66
2022/04/24 12:11:32;;;;;;;4.38;2.75;;;15.80;75.90;;;;;;5056284;28;20336;-66
2022/04/24 12:13:58;;;;;;;4.05;3.20;;;15.70;75.30;;;;;;5056237;28;20139;-64
2022/04/24 12:16:23;;;;;;;3.92;3.15;;;15.50;74.10;;;;;;5071729;28;20040;-64
2022/04/24 12:18:55;;;;;;;4.28;2.67;;;15.70;76.10;;;;;;5075531;28;20075;-64
2022/04/24 12:21:21;;;;;;;5.05;2.65;;;15.70;76.10;;;;;;5073529;28;20059;-64
2022/04/24 12:23:53;;;;;;;4.88;2.92;;;15.70;76.00;;;;;;5063164;28;20041;-64
2022/04/24 12:26:20;;;;;;;3.22;2.42;;;15.70;75.40;;;;;;5058878;28;20574;-65
2022/04/24 12:28:47;;;;;;;5.40;2.70;;;15.50;75.30;;;;;;5059653;28;20056;-64
2022/04/24 12:31:27;;;;;;;4.55;3.30;;;15.30;75.30;;;;;;5055223;28;20670;-65
2022/04/24 12:33:57;;;;;;;8.35;3.80;;;15.40;76.30;;;;;;5061576;28;20044;-64
2022/04/24 12:36:23;;;;;;;3.92;2.53;;;15.40;76.90;;;;;;5075032;28;20750;-65
2022/04/24 12:38:56;;;;;;;5.32;2.78;;;15.70;77.10;;;;;;5064568;28;20084;-64
2022/04/24 12:41:26;;;;;;;4.40;2.70;;;15.70;75.80;;;;;;5070125;28;20048;-65
2022/04/24 12:43:53;;;;;;;4.63;3.42;;;15.80;77.10;;;;;;5074201;28;20051;-64
2022/04/24 12:46:19;;;;;;;6.97;3.88;;;15.70;77.60;;;;;;5069383;28;20088;-64
2022/04/24 12:48:50;;;;;;;3.97;3.60;;;15.60;78.10;;;;;;5054013;28;20131;-64
2022/04/24 12:51:16;;;;;;;4.75;3.00;;;15.50;78.90;;;;;;5053685;28;20064;-64
2022/04/24 12:53:42;;;;;;;8.68;3.70;;;15.60;79.30;;;;;;5056907;28;20591;-65